Billtown, Indiana
Current Conditions -  °F | °C
As of 6:53 AM on Monday 26 Jan 2015 (Local Time) from KHUF Reporting Station
Overcast Overcast  
Wind Chill: 22°   Ceiling: 1800
Heat Index: 27°   Visibility: 10mi
Dew Point: 20°   Wind: 5mph
Humidity: 75%   Direction: 340°NNW
Pressure: 29.96"   Gusts: NA
Location:  39.5158°N, 87.1262°W
Report Text: KHUF 261153Z 34004KT 10SM BKN018 OVC027 M03/M07 A2996 RMK AO2 SLP150 70019 T10281067 11028 21033 53004
Loading
Personal Weather Stations






























Interactive Weather Map New forecast layout! Learn more

10-Day Weather Forecast

Advertisements
Track Severe Weather on mobile